Time;durP1;ratioP1;P1;durP2;ratioP2;P2;SDS_P1;SDS_P2;PMS_P1;PMS_P2;Temp;Humidity;BMP_temperature;BMP_pressure;BME280_temperature;BME280_humidity;BME280_pressure;Samples;Min_cycle;Max_cycle;Signal;HPM_P1;HPM_P2
2022/12/23 00:00:08;;;;;;;54.03;23.90;;;;;;;4.39;100.00;98669.00;4194624;28;20321;-71
2022/12/23 00:02:34;;;;;;;56.83;25.47;;;;;;;4.39;100.00;98673.47;4192811;28;22614;-68
2022/12/23 00:05:02;;;;;;;59.63;26.33;;;;;;;4.38;100.00;98674.44;4206869;28;20658;-67
2022/12/23 00:07:29;;;;;;;56.83;26.07;;;;;;;4.36;100.00;98679.03;4203502;28;20239;-69
2022/12/23 00:09:56;;;;;;;60.63;26.80;;;;;;;4.31;100.00;98684.75;4203703;28;21515;-71
2022/12/23 00:15:09;;;;;;;59.23;27.10;;;;;;;4.32;100.00;98680.28;4198294;28;20242;-70
2022/12/23 00:17:44;;;;;;;62.93;27.40;;;;;;;4.37;100.00;98668.31;4199901;28;20232;-73
2022/12/23 00:20:13;;;;;;;61.77;27.20;;;;;;;4.34;100.00;98678.34;4200639;28;20407;-71
2022/12/23 00:25:40;;;;;;;66.30;28.87;;;;;;;4.36;100.00;98677.22;4200506;28;20280;-72
2022/12/23 00:28:14;;;;;;;74.37;28.03;;;;;;;4.34;100.00;98683.63;4203244;28;21336;-70
2022/12/23 00:30:50;;;;;;;65.00;28.17;;;;;;;4.32;100.00;98682.94;4203301;28;20502;-70
2022/12/23 00:33:25;;;;;;;63.13;28.03;;;;;;;4.35;100.00;98691.34;4190857;28;20232;-70
2022/12/23 00:35:51;;;;;;;69.20;30.00;;;;;;;4.32;100.00;98701.34;4192429;28;20561;-69
2022/12/23 00:43:56;;;;;;;69.37;28.10;;;;;;;4.32;100.00;98693.47;4208825;28;20250;-69
2022/12/23 00:46:22;;;;;;;78.70;30.70;;;;;;;4.42;100.00;98691.59;4200488;28;22296;-70
2022/12/23 00:51:34;;;;;;;79.23;31.57;;;;;;;4.37;100.00;98699.09;4198620;28;20240;-72
2022/12/23 00:54:01;;;;;;;84.47;32.13;;;;;;;4.38;100.00;98700.78;4186108;28;20759;-70
2022/12/23 00:56:28;;;;;;;92.53;33.87;;;;;;;4.38;100.00;98706.06;4203502;28;20231;-69
2022/12/23 00:58:54;;;;;;;102.73;34.77;;;;;;;4.36;100.00;98708.00;4200426;28;20220;-69
2022/12/23 01:06:57;;;;;;;98.40;33.13;;;;;;;4.37;100.00;98707.00;4201315;28;20795;-69
2022/12/23 01:09:24;;;;;;;118.73;35.37;;;;;;;4.36;100.00;98703.56;4197761;28;20234;-69
2022/12/23 01:11:51;;;;;;;111.97;37.97;;;;;;;4.33;100.00;98705.63;4204023;28;21340;-70
2022/12/23 01:14:18;;;;;;;123.73;36.60;;;;;;;4.34;100.00;98707.31;4194970;28;20367;-71
2022/12/23 01:16:45;;;;;;;113.90;36.97;;;;;;;4.38;100.00;98706.06;4204327;28;20466;-70
2022/12/23 01:19:12;;;;;;;121.63;37.50;;;;;;;4.37;100.00;98712.28;4177621;28;20232;-70
2022/12/23 01:21:38;;;;;;;129.13;37.80;;;;;;;4.34;100.00;98717.84;4195732;28;20299;-71
2022/12/23 01:24:05;;;;;;;136.73;37.97;;;;;;;4.41;100.00;98721.53;4207326;28;22536;-70
2022/12/23 01:26:31;;;;;;;128.43;38.27;;;;;;;4.43;100.00;98719.59;4205064;28;20238;-69
2022/12/23 01:28:58;;;;;;;126.73;37.47;;;;;;;4.39;100.00;98721.69;4187788;28;20248;-70
2022/12/23 01:31:26;;;;;;;121.57;35.63;;;;;;;4.40;100.00;98718.09;4186314;28;20626;-70
2022/12/23 01:33:53;;;;;;;137.23;35.73;;;;;;;4.47;100.00;98720.94;4208069;28;21376;-68
2022/12/23 01:36:20;;;;;;;136.83;36.00;;;;;;;4.44;100.00;98715.97;4206630;28;25625;-69
2022/12/23 01:38:47;;;;;;;128.43;36.37;;;;;;;4.43;100.00;98717.78;4182790;28;20313;-72
2022/12/23 01:44:47;;;;;;;164.73;39.30;;;;;;;4.33;100.00;98719.66;4212351;28;20344;-69
2022/12/23 01:47:38;;;;;;;139.10;38.00;;;;;;;4.36;100.00;98715.91;4196363;28;20237;-70
2022/12/23 01:50:24;;;;;;;172.20;41.13;;;;;;;4.34;100.00;98720.47;4217339;28;21816;-71
2022/12/23 01:53:03;;;;;;;152.43;38.37;;;;;;;4.59;100.00;98724.22;4199177;28;20252;-69
2022/12/23 01:55:45;;;;;;;139.70;39.83;;;;;;;4.63;100.00;98721.09;4201092;28;20225;-68
2022/12/23 01:58:25;;;;;;;195.70;40.67;;;;;;;4.58;100.00;98725.16;4205337;28;20234;-72
2022/12/23 02:03:41;;;;;;;164.47;39.83;;;;;;;4.69;100.00;98735.50;4190460;28;26078;-70
2022/12/23 02:09:17;;;;;;;193.43;40.77;;;;;;;4.65;100.00;98734.97;4211466;28;27233;-69
2022/12/23 02:11:56;;;;;;;177.43;39.77;;;;;;;4.67;100.00;98741.91;4199151;28;20602;-71
2022/12/23 02:17:40;;;;;;;166.90;38.00;;;;;;;4.72;100.00;98745.72;4206315;28;20657;-70
2022/12/23 02:20:35;;;;;;;186.37;40.13;;;;;;;4.71;100.00;98744.09;4197087;28;20287;-70
2022/12/23 02:23:33;;;;;;;248.20;42.97;;;;;;;4.67;100.00;98747.16;4182937;28;20380;-70
2022/12/23 02:26:37;;;;;;;215.40;42.57;;;;;;;4.65;100.00;98740.22;4206995;28;21614;-70
2022/12/23 02:29:22;;;;;;;215.37;40.83;;;;;;;4.69;100.00;98745.22;4204955;28;20392;-70
2022/12/23 02:32:02;;;;;;;171.67;39.83;;;;;;;4.72;100.00;98751.00;4208997;28;20232;-68
2022/12/23 02:34:35;;;;;;;211.80;42.80;;;;;;;4.75;100.00;98757.78;4168914;28;20835;-69
2022/12/23 02:37:15;;;;;;;245.80;44.23;;;;;;;4.67;100.00;98755.06;4219792;28;21666;-73
2022/12/23 02:39:57;;;;;;;242.47;42.33;;;;;;;4.74;100.00;98753.50;4197767;28;20235;-70
2022/12/23 02:42:34;;;;;;;259.47;45.17;;;;;;;4.71;100.00;98757.25;4197317;28;20235;-70
2022/12/23 02:45:11;;;;;;;234.63;43.30;;;;;;;4.71;100.00;98759.91;4206596;28;20256;-72
2022/12/23 02:47:51;;;;;;;179.27;41.83;;;;;;;4.80;100.00;98758.16;4362459;28;21329;-71
2022/12/23 02:50:28;;;;;;;196.70;42.83;;;;;;;4.78;100.00;98766.22;4279849;28;20933;-72
2022/12/23 02:52:57;;;;;;;169.53;40.73;;;;;;;4.85;100.00;98766.47;4196959;28;20232;-72
2022/12/23 02:55:30;;;;;;;179.77;40.20;;;;;;;4.91;100.00;98776.38;4526568;28;20230;-71
2022/12/23 02:58:00;;;;;;;134.77;37.10;;;;;;;4.97;100.00;98775.81;4361612;28;20717;-69
2022/12/23 03:00:27;;;;;;;174.83;38.87;;;;;;;4.92;100.00;98780.69;4191234;28;20244;-71
2022/12/23 03:02:53;;;;;;;142.90;37.17;;;;;;;5.07;100.00;98781.00;4199331;28;20244;-70
2022/12/23 03:05:26;;;;;;;121.17;33.87;;;;;;;5.13;100.00;98775.13;4264602;28;21301;-72
2022/12/23 03:07:55;;;;;;;148.37;37.03;;;;;;;5.17;100.00;98779.09;4290815;28;20235;-70
2022/12/23 03:10:32;;;;;;;158.73;37.37;;;;;;;5.10;100.00;98779.84;4201454;28;20274;-71
2022/12/23 03:13:17;;;;;;;162.47;36.83;;;;;;;5.12;100.00;98775.28;4195356;28;20598;-70
2022/12/23 03:15:46;;;;;;;132.47;34.10;;;;;;;5.14;100.00;98760.13;4219043;28;22282;-72
2022/12/23 03:18:20;;;;;;;136.63;34.57;;;;;;;5.19;100.00;98768.41;4223721;28;20265;-71
2022/12/23 03:21:11;;;;;;;124.20;34.60;;;;;;;5.26;100.00;98780.00;4207242;28;20232;-69
2022/12/23 03:23:43;;;;;;;131.23;33.67;;;;;;;5.25;100.00;98779.19;4205176;28;20236;-72
2022/12/23 03:26:35;;;;;;;113.90;33.27;;;;;;;5.26;100.00;98774.72;4194199;28;20319;-70
2022/12/23 03:29:12;;;;;;;113.53;33.00;;;;;;;5.32;100.00;98771.50;4205837;28;22982;-71
2022/12/23 03:31:39;;;;;;;119.47;34.00;;;;;;;5.26;100.00;98775.56;4223958;28;20236;-70
2022/12/23 03:34:10;;;;;;;127.43;33.97;;;;;;;5.21;100.00;98777.00;4208228;28;20282;-70
2022/12/23 03:36:40;;;;;;;119.63;34.33;;;;;;;5.19;100.00;98781.59;4207888;28;21824;-71
2022/12/23 03:39:10;;;;;;;108.53;33.40;;;;;;;5.18;100.00;98787.88;4195407;28;20233;-72
2022/12/23 03:41:41;;;;;;;109.03;33.80;;;;;;;5.23;100.00;98783.78;4185205;28;20425;-72
2022/12/23 03:44:35;;;;;;;100.47;32.07;;;;;;;5.21;100.00;98788.38;4230536;28;20247;-71
2022/12/23 03:47:08;;;;;;;108.27;33.00;;;;;;;5.22;100.00;98783.91;4273574;28;20252;-73
2022/12/23 03:49:45;;;;;;;118.87;33.63;;;;;;;5.16;100.00;98801.19;4268963;28;20252;-74
2022/12/23 03:52:14;;;;;;;110.57;34.37;;;;;;;5.11;100.00;98795.53;4201822;28;20966;-71
2022/12/23 03:54:59;;;;;;;103.13;33.60;;;;;;;5.16;100.00;98797.72;4201128;28;20239;-72
2022/12/23 03:57:43;;;;;;;114.53;33.80;;;;;;;5.06;100.00;98789.91;4198909;28;20317;-70
2022/12/23 04:00:10;;;;;;;108.87;33.33;;;;;;;5.11;100.00;98789.44;4195038;28;20238;-71
2022/12/23 04:02:42;;;;;;;103.47;31.87;;;;;;;5.17;100.00;98787.00;4211378;28;20307;-70
2022/12/23 04:05:20;;;;;;;95.33;32.60;;;;;;;5.20;100.00;98791.19;4213811;28;23018;-72
2022/12/23 04:07:59;;;;;;;102.73;34.13;;;;;;;5.19;100.00;98794.78;4191774;28;21219;-73
2022/12/23 04:10:26;;;;;;;87.53;30.37;;;;;;;5.19;100.00;98798.22;4171711;28;20228;-70
2022/12/23 04:12:53;;;;;;;96.47;32.27;;;;;;;5.14;100.00;98789.13;4212960;28;25607;-70
2022/12/23 04:15:22;;;;;;;93.60;30.23;;;;;;;5.06;100.00;98790.72;4194434;28;20243;-71
2022/12/23 04:17:49;;;;;;;97.47;31.30;;;;;;;5.04;100.00;98795.31;4198514;28;20769;-72
2022/12/23 04:20:16;;;;;;;97.80;32.93;;;;;;;4.80;100.00;98784.50;4187476;28;20236;-69
2022/12/23 04:22:43;;;;;;;96.00;31.57;;;;;;;4.78;100.00;98786.50;4207084;28;22374;-70
2022/12/23 04:25:11;;;;;;;104.23;32.43;;;;;;;4.81;100.00;98791.44;4203682;28;20344;-72
2022/12/23 04:27:38;;;;;;;99.83;31.30;;;;;;;4.91;100.00;98792.19;4209149;28;20304;-69
2022/12/23 04:30:06;;;;;;;99.40;32.07;;;;;;;4.71;100.00;98798.59;4218167;28;20334;-71
2022/12/23 04:32:32;;;;;;;102.00;33.33;;;;;;;4.75;100.00;98802.56;4219612;28;20530;-68
2022/12/23 04:34:59;;;;;;;89.27;31.90;;;;;;;4.80;100.00;98800.31;4187253;28;20231;-69
2022/12/23 04:37:25;;;;;;;92.30;30.73;;;;;;;4.72;100.00;98805.50;4199901;28;20382;-70
2022/12/23 04:39:52;;;;;;;98.70;32.10;;;;;;;4.68;100.00;98812.03;4204823;28;20319;-73
2022/12/23 04:42:18;;;;;;;97.80;30.60;;;;;;;4.73;100.00;98807.16;4199254;28;20223;-71
2022/12/23 04:44:45;;;;;;;100.27;31.90;;;;;;;4.75;100.00;98792.88;4186662;28;20402;-70
2022/12/23 04:47:12;;;;;;;94.40;32.23;;;;;;;4.53;100.00;98807.28;4190282;28;20277;-70
2022/12/23 04:49:39;;;;;;;96.87;32.23;;;;;;;4.51;100.00;98795.22;4210585;28;20250;-71
2022/12/23 04:52:06;;;;;;;89.23;31.40;;;;;;;4.47;100.00;98799.94;4195507;28;26544;-71
2022/12/23 04:54:33;;;;;;;89.20;30.67;;;;;;;4.40;100.00;98793.59;4197738;28;20377;-70
2022/12/23 04:56:59;;;;;;;91.90;30.63;;;;;;;4.37;100.00;98800.00;4202811;28;20311;-75
2022/12/23 04:59:26;;;;;;;95.83;31.87;;;;;;;4.43;100.00;98804.69;4198458;28;20236;-71
2022/12/23 05:01:52;;;;;;;84.07;30.53;;;;;;;4.55;100.00;98810.59;4217874;28;20235;-72
2022/12/23 05:04:19;;;;;;;90.70;31.13;;;;;;;4.68;100.00;98809.41;4204456;28;20248;-72
2022/12/23 05:06:45;;;;;;;93.70;32.37;;;;;;;4.49;100.00;98813.81;4197838;28;20307;-73
2022/12/23 05:09:12;;;;;;;79.73;30.00;;;;;;;4.53;100.00;98811.72;4198593;28;20739;-73
2022/12/23 05:11:38;;;;;;;93.50;31.27;;;;;;;4.50;100.00;98815.47;4218421;28;20731;-70
2022/12/23 05:14:11;;;;;;;84.57;30.60;;;;;;;4.50;100.00;98810.22;4209529;28;20234;-71
2022/12/23 05:16:38;;;;;;;77.70;28.57;;;;;;;4.54;100.00;98821.25;4184739;28;25307;-71
2022/12/23 05:19:05;;;;;;;82.83;28.80;;;;;;;4.53;100.00;98825.72;4194039;28;21023;-71
2022/12/23 05:21:31;;;;;;;76.87;28.10;;;;;;;4.50;100.00;98820.75;4201590;28;20293;-70
2022/12/23 05:23:58;;;;;;;70.83;28.13;;;;;;;4.70;100.00;98820.63;4206364;28;20314;-71
2022/12/23 05:26:24;;;;;;;80.67;27.10;;;;;;;4.76;100.00;98822.69;4201459;28;20624;-70
2022/12/23 05:28:50;;;;;;;80.30;28.87;;;;;;;4.76;100.00;98825.31;4216628;28;20599;-74
2022/12/23 05:31:17;;;;;;;67.57;27.60;;;;;;;4.79;100.00;98825.84;4204841;28;20235;-75
2022/12/23 05:33:44;;;;;;;74.17;27.37;;;;;;;4.52;100.00;98817.94;4192109;28;21778;-71
2022/12/23 05:36:11;;;;;;;79.83;28.20;;;;;;;4.45;100.00;98828.25;4203972;28;20246;-71
2022/12/23 05:38:38;;;;;;;71.73;26.90;;;;;;;4.47;100.00;98831.56;4204980;28;24150;-73
2022/12/23 05:41:04;;;;;;;78.03;29.37;;;;;;;4.48;100.00;98833.22;4195952;28;21191;-70
2022/12/23 05:43:31;;;;;;;81.43;29.07;;;;;;;4.47;100.00;98831.56;4199332;28;20717;-70
2022/12/23 05:45:57;;;;;;;84.83;28.10;;;;;;;4.33;100.00;98824.97;4197815;28;20251;-71
2022/12/23 05:48:24;;;;;;;68.83;27.73;;;;;;;4.48;100.00;98833.22;4203052;28;20469;-71
2022/12/23 05:50:52;;;;;;;77.67;30.07;;;;;;;4.36;100.00;98839.66;4200474;28;20571;-72
2022/12/23 05:53:18;;;;;;;85.53;31.00;;;;;;;4.40;100.00;98843.66;4209191;28;20236;-75
2022/12/23 05:55:46;;;;;;;78.40;29.27;;;;;;;4.49;100.00;98834.88;4274360;28;20301;-71
2022/12/23 05:58:13;;;;;;;76.00;29.73;;;;;;;4.47;100.00;98834.19;4406449;28;20315;-72
2022/12/23 06:00:40;;;;;;;75.57;28.67;;;;;;;4.48;100.00;98841.13;4311256;28;20235;-72
2022/12/23 06:03:06;;;;;;;81.73;28.83;;;;;;;4.37;100.00;98847.41;4195523;28;23087;-74
2022/12/23 06:05:36;;;;;;;86.67;30.67;;;;;;;4.25;100.00;98839.84;4196984;28;22096;-74
2022/12/23 06:08:03;;;;;;;71.53;28.37;;;;;;;4.44;100.00;98845.03;4193542;28;20368;-71
2022/12/23 06:10:29;;;;;;;78.63;27.77;;;;;;;4.32;100.00;98843.56;4222500;28;20311;-76
2022/12/23 06:12:59;;;;;;;70.30;27.40;;;;;;;4.35;100.00;98844.06;4204848;28;20296;-73
2022/12/23 06:15:26;;;;;;;71.23;27.43;;;;;;;4.43;100.00;98846.00;4220798;28;20243;-74
2022/12/23 06:17:54;;;;;;;72.57;28.20;;;;;;;4.37;100.00;98846.56;4206874;28;20307;-71
2022/12/23 06:20:21;;;;;;;74.97;30.13;;;;;;;4.55;100.00;98851.91;4184390;28;26441;-72
2022/12/23 06:22:47;;;;;;;71.33;29.83;;;;;;;4.38;100.00;98861.41;4215889;28;23273;-72
2022/12/23 06:25:14;;;;;;;81.43;28.37;;;;;;;4.44;100.00;98858.19;4214875;28;20640;-72
2022/12/23 06:27:40;;;;;;;70.43;27.60;;;;;;;4.42;100.00;98866.25;4203307;28;20260;-70
2022/12/23 06:30:08;;;;;;;66.00;27.30;;;;;;;4.53;100.00;98865.22;4185379;28;22489;-69
2022/12/23 06:32:34;;;;;;;66.27;27.23;;;;;;;4.51;100.00;98871.63;4207815;28;20427;-70
2022/12/23 06:35:05;;;;;;;65.73;27.37;;;;;;;4.57;100.00;98863.97;4214437;28;20228;-70
2022/12/23 06:37:31;;;;;;;62.03;26.97;;;;;;;4.57;100.00;98863.97;4199470;28;21235;-69
2022/12/23 06:39:58;;;;;;;64.93;27.43;;;;;;;4.54;100.00;98874.81;4204483;28;23565;-73
2022/12/23 06:42:25;;;;;;;58.77;26.87;;;;;;;4.44;100.00;98879.25;4200201;28;20232;-69
2022/12/23 06:44:51;;;;;;;67.73;26.93;;;;;;;4.44;100.00;98884.53;4202693;28;21463;-70
2022/12/23 06:47:18;;;;;;;69.47;28.10;;;;;;;4.50;100.00;98872.59;4219808;28;20406;-72
2022/12/23 06:49:44;;;;;;;64.60;27.23;;;;;;;4.61;100.00;98878.50;4203081;28;22115;-68
2022/12/23 06:52:11;;;;;;;67.03;28.87;;;;;;;4.71;100.00;98872.38;4194900;28;20308;-71
2022/12/23 06:54:37;;;;;;;65.10;27.70;;;;;;;4.71;100.00;98885.53;4213758;28;20620;-70
2022/12/23 06:57:04;;;;;;;62.67;28.17;;;;;;;4.62;100.00;98874.06;4215510;28;20587;-68
2022/12/23 06:59:32;;;;;;;59.43;26.53;;;;;;;4.68;100.00;98880.56;4239421;28;20504;-68
2022/12/23 07:01:58;;;;;;;56.93;27.13;;;;;;;4.65;100.00;98882.50;4237633;28;25146;-69
2022/12/23 07:04:25;;;;;;;63.70;27.13;;;;;;;4.60;100.00;98887.38;4240145;28;20239;-72
2022/12/23 07:06:52;;;;;;;62.13;28.20;;;;;;;4.64;100.00;98880.84;4228351;28;20332;-70
2022/12/23 07:09:19;;;;;;;61.67;28.53;;;;;;;4.67;100.00;98884.16;4233652;28;20232;-71
2022/12/23 07:11:45;;;;;;;63.10;29.47;;;;;;;4.73;100.00;98894.13;4269074;28;20232;-72
2022/12/23 07:14:12;;;;;;;68.50;30.40;;;;;;;4.68;100.00;98899.81;4224898;28;20414;-75
2022/12/23 07:16:38;;;;;;;59.17;28.57;;;;;;;4.69;100.00;98898.84;4238774;28;20233;-76
2022/12/23 07:19:06;;;;;;;64.83;29.87;;;;;;;4.70;100.00;98904.94;4210954;28;20237;-74
2022/12/23 07:21:33;;;;;;;70.03;30.80;;;;;;;4.72;100.00;98897.72;4203846;28;20234;-76
2022/12/23 07:23:59;;;;;;;60.37;28.80;;;;;;;4.81;100.00;98899.50;4218822;28;20308;-75
2022/12/23 07:26:26;;;;;;;60.57;27.47;;;;;;;4.93;100.00;98905.41;4266105;28;20234;-77
2022/12/23 07:28:53;;;;;;;58.23;27.80;;;;;;;4.95;100.00;98899.00;4269857;28;20236;-74
2022/12/23 07:31:20;;;;;;;52.17;25.80;;;;;;;4.95;100.00;98893.72;4235834;28;20664;-74
2022/12/23 07:33:47;;;;;;;51.53;25.47;;;;;;;4.85;100.00;98892.97;4198047;28;20233;-74
2022/12/23 07:36:13;;;;;;;45.63;22.60;;;;;;;4.84;100.00;98893.94;4210921;28;20240;-71
2022/12/23 07:38:40;;;;;;;52.93;22.87;;;;;;;4.87;100.00;98891.03;4206455;28;20274;-75
2022/12/23 07:41:06;;;;;;;46.07;22.63;;;;;;;4.94;100.00;98886.81;4197185;28;21344;-72
2022/12/23 07:43:33;;;;;;;45.23;22.07;;;;;;;4.91;100.00;98879.19;4214928;28;20911;-71
2022/12/23 07:46:05;;;;;;;43.77;22.23;;;;;;;4.96;100.00;98874.28;4209209;28;20238;-74
2022/12/23 07:48:32;;;;;;;48.07;23.27;;;;;;;5.08;100.00;98877.59;4203285;28;20338;-74
2022/12/23 07:51:03;;;;;;;45.07;22.60;;;;;;;5.14;100.00;98881.41;4238057;28;20327;-72
2022/12/23 07:53:33;;;;;;;45.23;22.43;;;;;;;5.10;100.00;98887.97;4206131;28;23439;-71
2022/12/23 07:55:59;;;;;;;51.67;24.60;;;;;;;5.10;100.00;98893.22;4205635;28;22313;-70
2022/12/23 07:58:26;;;;;;;46.73;25.17;;;;;;;5.10;100.00;98896.69;4214637;28;20488;-73
2022/12/23 08:01:04;;;;;;;48.23;24.87;;;;;;;5.17;100.00;98910.94;4211324;28;20236;-75
2022/12/23 08:03:35;;;;;;;44.80;23.43;;;;;;;5.09;100.00;98910.88;4202143;28;21175;-74
2022/12/23 08:06:08;;;;;;;47.57;23.43;;;;;;;5.08;100.00;98917.13;4205629;28;23407;-72
2022/12/23 08:08:34;;;;;;;42.67;22.47;;;;;;;5.04;100.00;98908.66;4215502;28;20236;-72
2022/12/23 08:11:03;;;;;;;42.97;22.13;;;;;;;5.19;100.00;98910.81;4199839;28;20237;-73
2022/12/23 08:13:31;;;;;;;49.97;22.77;;;;;;;5.26;100.00;98904.78;4216887;28;21101;-72
2022/12/23 08:15:59;;;;;;;45.73;22.03;;;;;;;5.18;100.00;98909.16;4214834;28;21662;-72
2022/12/23 08:18:28;;;;;;;45.83;22.23;;;;;;;5.20;100.00;98908.03;4201398;28;21601;-73
2022/12/23 08:20:56;;;;;;;52.43;22.30;;;;;;;5.20;100.00;98907.22;4210358;28;23097;-74
2022/12/23 08:23:24;;;;;;;42.23;22.33;;;;;;;5.18;100.00;98901.25;4210780;28;20738;-76
2022/12/23 08:26:08;;;;;;;45.43;21.90;;;;;;;5.17;100.00;98896.94;4213039;28;20892;-75
2022/12/23 08:28:35;;;;;;;45.00;22.20;;;;;;;5.28;100.00;98908.09;4210072;28;20240;-71
2022/12/23 08:31:17;;;;;;;45.73;23.43;;;;;;;5.24;100.00;98893.56;4204525;28;20295;-72
2022/12/23 08:33:46;;;;;;;49.87;23.23;;;;;;;5.30;100.00;98900.06;4217362;28;20275;-73
2022/12/23 08:36:20;;;;;;;47.53;23.80;;;;;;;5.42;100.00;98890.94;4230879;28;20312;-74
2022/12/23 08:38:49;;;;;;;48.30;23.50;;;;;;;5.50;100.00;98891.03;4266964;28;21173;-76
2022/12/23 08:41:19;;;;;;;49.73;23.40;;;;;;;5.60;100.00;98888.31;4240467;28;20338;-73
2022/12/23 08:43:46;;;;;;;53.20;25.03;;;;;;;5.63;100.00;98889.81;4253068;28;20242;-77
2022/12/23 08:46:13;;;;;;;45.60;23.37;;;;;;;5.66;100.00;98887.69;4293023;28;20300;-77
2022/12/23 08:48:40;;;;;;;48.63;22.17;;;;;;;5.69;100.00;98889.22;4266233;28;21129;-81
2022/12/23 08:51:16;;;;;;;42.97;21.30;;;;;;;5.55;100.00;98879.16;4237125;28;20243;-76
2022/12/23 08:53:43;;;;;;;50.37;22.97;;;;;;;5.60;100.00;98883.03;4208031;28;20923;-77
2022/12/23 08:56:18;;;;;;;42.63;22.17;;;;;;;5.61;100.00;98883.84;4223346;28;20418;-75
2022/12/23 08:58:46;;;;;;;45.17;22.93;;;;;;;5.65;100.00;98879.94;4215266;28;20226;-78
2022/12/23 09:01:15;;;;;;;52.00;22.57;;;;;;;5.71;100.00;98874.03;4199570;28;20224;-74
2022/12/23 09:03:44;;;;;;;50.17;23.10;;;;;;;5.66;100.00;98873.66;4223829;28;20313;-76
2022/12/23 09:06:14;;;;;;;48.50;24.03;;;;;;;5.70;100.00;98862.66;4245786;28;20627;-75
2022/12/23 09:08:41;;;;;;;46.83;23.53;;;;;;;5.71;100.00;98866.13;4211621;28;20371;-73
2022/12/23 09:11:13;;;;;;;45.23;23.13;;;;;;;5.56;100.00;98862.38;4217409;28;20322;-73
2022/12/23 09:13:40;;;;;;;43.73;22.07;;;;;;;5.67;100.00;98867.41;4242499;28;20235;-73
2022/12/23 09:16:06;;;;;;;43.57;21.77;;;;;;;5.75;100.00;98864.84;4202137;28;20387;-72
2022/12/23 09:18:34;;;;;;;41.77;21.10;;;;;;;5.74;100.00;98865.81;4231806;28;21525;-73
2022/12/23 09:21:03;;;;;;;48.23;20.10;;;;;;;5.78;100.00;98848.69;4234541;28;20228;-73
2022/12/23 09:23:34;;;;;;;41.83;19.67;;;;;;;5.81;100.00;98853.69;4231983;28;21517;-77
2022/12/23 09:26:00;;;;;;;42.63;20.20;;;;;;;5.76;100.00;98847.19;4212743;28;20236;-76
2022/12/23 09:28:27;;;;;;;44.43;20.83;;;;;;;5.65;100.00;98848.28;4216345;28;23608;-73
2022/12/23 09:30:53;;;;;;;43.60;20.77;;;;;;;5.67;100.00;98841.03;4221081;28;20251;-75
2022/12/23 09:33:20;;;;;;;44.70;21.83;;;;;;;5.62;100.00;98848.56;4215134;28;20256;-76
2022/12/23 09:35:46;;;;;;;45.90;20.83;;;;;;;5.74;100.00;98831.53;4217510;28;20241;-75
2022/12/23 09:38:13;;;;;;;41.97;20.60;;;;;;;5.62;100.00;98833.56;4216025;28;21279;-76
2022/12/23 09:40:41;;;;;;;41.93;20.53;;;;;;;5.68;100.00;98829.47;4221536;28;21714;-75
2022/12/23 09:43:34;;;;;;;41.00;20.60;;;;;;;5.76;100.00;98828.72;4233901;28;20294;-73
2022/12/23 09:46:21;;;;;;;41.23;19.97;;;;;;;5.75;100.00;98827.88;4239436;28;20588;-74
2022/12/23 09:48:59;;;;;;;39.73;20.13;;;;;;;5.79;100.00;98826.59;4210230;28;20233;-77
2022/12/23 09:51:26;;;;;;;46.13;20.30;;;;;;;5.74;100.00;98825.41;4223682;28;20380;-76
2022/12/23 09:54:14;;;;;;;43.03;20.70;;;;;;;5.87;100.00;98818.72;4206098;28;23065;-74
2022/12/23 09:56:52;;;;;;;50.37;21.83;;;;;;;5.81;100.00;98816.72;4211291;28;20228;-76
2022/12/23 09:59:34;;;;;;;43.60;20.93;;;;;;;5.85;100.00;98815.44;4222196;28;22473;-74
2022/12/23 10:02:38;;;;;;;45.03;21.13;;;;;;;5.95;100.00;98819.78;4220918;28;20275;-73
2022/12/23 10:05:24;;;;;;;44.57;20.53;;;;;;;5.93;100.00;98815.47;4239855;28;22401;-73
2022/12/23 10:07:56;;;;;;;40.23;20.43;;;;;;;5.99;100.00;98814.03;4240930;28;20263;-75
2022/12/23 10:10:34;;;;;;;46.87;19.97;;;;;;;5.93;100.00;98810.19;4189663;28;20323;-72
2022/12/23 10:13:04;;;;;;;45.47;19.70;;;;;;;5.97;100.00;98805.47;4206328;28;21910;-74
2022/12/23 10:15:42;;;;;;;42.27;19.93;;;;;;;5.95;100.00;98806.59;4199073;28;23145;-74
2022/12/23 10:18:22;;;;;;;45.17;19.77;;;;;;;5.85;100.00;98796.97;4202818;28;21777;-76
2022/12/23 10:20:55;;;;;;;40.97;18.87;;;;;;;5.92;100.00;98803.28;4205190;28;20236;-73
2022/12/23 10:23:32;;;;;;;43.93;21.13;;;;;;;5.89;100.00;98800.91;4196308;28;20310;-74
2022/12/23 10:25:59;;;;;;;45.27;20.47;;;;;;;5.91;100.00;98803.41;4198281;28;20246;-76
2022/12/23 10:28:25;;;;;;;40.53;18.87;;;;;;;5.88;100.00;98806.38;4200319;28;21230;-73
2022/12/23 10:31:03;;;;;;;47.07;20.50;;;;;;;5.74;100.00;98796.38;4208986;28;22346;-75
2022/12/23 10:34:06;;;;;;;43.87;20.83;;;;;;;5.79;100.00;98792.28;4232162;28;20265;-78
2022/12/23 10:37:06;;;;;;;40.77;19.97;;;;;;;5.87;100.00;98796.78;4226364;28;20303;-73
2022/12/23 10:39:43;;;;;;;43.57;20.47;;;;;;;5.81;100.00;98790.31;4211178;28;20236;-74
2022/12/23 10:42:24;;;;;;;43.83;20.80;;;;;;;5.96;100.00;98792.41;4196153;28;20232;-71
2022/12/23 10:45:12;;;;;;;41.57;20.60;;;;;;;5.79;100.00;98789.66;4212934;28;20662;-71
2022/12/23 10:47:51;;;;;;;46.40;21.43;;;;;;;5.81;100.00;98782.41;4278340;28;20252;-73
2022/12/23 10:50:53;;;;;;;46.07;20.17;;;;;;;5.64;100.00;98791.19;4214900;28;20923;-73
2022/12/23 10:53:32;;;;;;;45.17;20.20;;;;;;;5.55;100.00;98785.03;4187698;28;20400;-73
2022/12/23 10:55:59;;;;;;;46.40;20.77;;;;;;;5.63;100.00;98785.09;4213032;28;20477;-73
2022/12/23 10:58:25;;;;;;;46.80;21.33;;;;;;;5.60;100.00;98780.13;4215005;28;20238;-75
2022/12/23 11:00:57;;;;;;;51.50;22.20;;;;;;;5.68;100.00;98774.88;4208475;28;20269;-73
2022/12/23 11:03:58;;;;;;;54.33;23.20;;;;;;;5.53;100.00;98770.34;4212506;28;22140;-74
2022/12/23 11:06:25;;;;;;;51.03;22.60;;;;;;;5.66;100.00;98762.84;4199987;28;21215;-74
2022/12/23 11:09:01;;;;;;;44.10;21.40;;;;;;;5.57;100.00;98761.97;4327350;28;21617;-73
2022/12/23 11:11:55;;;;;;;45.77;21.97;;;;;;;5.55;100.00;98752.53;4190771;28;20237;-73
2022/12/23 11:14:40;;;;;;;44.67;21.47;;;;;;;5.50;100.00;98751.19;4207753;28;21255;-73
2022/12/23 11:17:23;;;;;;;49.77;21.70;;;;;;;5.46;100.00;98743.75;4204461;28;20236;-74
2022/12/23 11:20:05;;;;;;;48.03;21.77;;;;;;;5.43;100.00;98738.75;4222951;28;22552;-74
2022/12/23 11:22:32;;;;;;;49.93;21.90;;;;;;;5.55;100.00;98734.06;4217704;28;20305;-76
2022/12/23 11:25:16;;;;;;;52.57;22.27;;;;;;;5.45;100.00;98727.06;4248553;28;20235;-76
2022/12/23 11:27:43;;;;;;;46.87;21.90;;;;;;;5.43;100.00;98723.78;4204352;28;20234;-74
2022/12/23 11:30:17;;;;;;;51.23;21.83;;;;;;;5.45;100.00;98724.44;4201451;28;20280;-74
2022/12/23 11:32:43;;;;;;;49.87;22.50;;;;;;;5.56;100.00;98722.53;4210972;28;20568;-75
2022/12/23 11:35:26;;;;;;;45.83;21.90;;;;;;;5.41;100.00;98717.81;4199765;28;21550;-74
2022/12/23 11:37:54;;;;;;;44.43;21.93;;;;;;;5.41;100.00;98715.19;4272186;28;20655;-76
2022/12/23 11:40:26;;;;;;;48.53;22.20;;;;;;;5.27;100.00;98716.56;4188828;28;20982;-74
2022/12/23 11:43:00;;;;;;;45.07;22.03;;;;;;;5.34;100.00;98719.44;4212673;28;20480;-74
2022/12/23 11:45:32;;;;;;;48.87;23.63;;;;;;;5.48;100.00;98718.88;4207430;28;21314;-72
2022/12/23 11:47:59;;;;;;;57.50;25.00;;;;;;;5.44;100.00;98714.06;4207369;28;20479;-70
2022/12/23 11:50:32;;;;;;;53.37;25.13;;;;;;;5.27;100.00;98718.38;4223903;28;20236;-67
2022/12/23 11:53:22;;;;;;;53.60;24.33;;;;;;;5.27;100.00;98713.13;4214441;28;20236;-72
2022/12/23 11:56:07;;;;;;;57.90;24.73;;;;;;;5.28;100.00;98706.84;4213840;28;21792;-74
2022/12/23 11:58:40;;;;;;;53.70;25.73;;;;;;;5.23;100.00;98706.47;4216140;28;20324;-71
2022/12/23 12:01:15;;;;;;;52.23;24.73;;;;;;;5.26;100.00;98700.91;4205774;28;20279;-70
2022/12/23 12:04:03;;;;;;;53.23;24.67;;;;;;;5.20;100.00;98698.88;4207717;28;21357;-73
2022/12/23 12:06:31;;;;;;;58.80;25.03;;;;;;;5.19;100.00;98697.22;4196677;28;21902;-73